Time;durP1;ratioP1;P1;durP2;ratioP2;P2;SDS_P1;SDS_P2;PMS_P1;PMS_P2;Temp;Humidity;BMP_temperature;BMP_pressure;BME280_temperature;BME280_humidity;BME280_pressure;Samples;Min_cycle;Max_cycle;Signal;HPM_P1;HPM_P2
2023/11/22 00:00:03;;;;;;;3.35;1.75;;;13.10;91.40;;;;;;5011679;28;20160;-79
2023/11/22 00:02:29;;;;;;;3.20;1.70;;;13.00;91.30;;;;;;4994625;28;20492;-79
2023/11/22 00:04:55;;;;;;;2.88;1.52;;;13.10;91.30;;;;;;5011475;28;20034;-80
2023/11/22 00:07:21;;;;;;;2.92;1.80;;;13.10;91.30;;;;;;4995158;28;20036;-79
2023/11/22 00:09:47;;;;;;;3.10;1.77;;;13.10;91.40;;;;;;4995178;28;20026;-78
2023/11/22 00:12:13;;;;;;;3.95;1.98;;;13.00;91.40;;;;;;4995076;28;20118;-79
2023/11/22 00:14:38;;;;;;;2.97;1.90;;;13.00;91.30;;;;;;4994778;28;20128;-79
2023/11/22 00:17:04;;;;;;;4.78;2.95;;;13.00;91.30;;;;;;4994672;28;20076;-77
2023/11/22 00:19:30;;;;;;;3.17;1.80;;;13.00;91.30;;;;;;4995380;28;20446;-79
2023/11/22 00:21:56;;;;;;;2.55;1.60;;;13.00;91.30;;;;;;4995166;28;20022;-79
2023/11/22 00:24:22;;;;;;;3.30;1.90;;;13.00;91.30;;;;;;4995227;28;20084;-79
2023/11/22 00:26:47;;;;;;;2.85;1.77;;;13.00;91.30;;;;;;5011441;28;20033;-78
2023/11/22 00:29:13;;;;;;;3.20;1.90;;;13.00;91.30;;;;;;4994579;28;20067;-79
2023/11/22 00:31:39;;;;;;;4.00;1.98;;;13.00;91.30;;;;;;4994632;28;20491;-79
2023/11/22 00:34:04;;;;;;;3.33;1.92;;;13.00;91.30;;;;;;4994909;28;20546;-78
2023/11/22 00:36:30;;;;;;;3.05;1.70;;;13.10;91.30;;;;;;5011071;28;20022;-78
2023/11/22 00:38:55;;;;;;;3.70;2.03;;;13.10;91.30;;;;;;4994635;28;20029;-80
2023/11/22 00:41:21;;;;;;;3.33;1.80;;;13.10;91.30;;;;;;4994763;28;20044;-79
2023/11/22 00:43:47;;;;;;;3.30;1.92;;;13.00;91.30;;;;;;4997242;28;20120;-79
2023/11/22 00:46:12;;;;;;;3.17;1.90;;;13.00;91.30;;;;;;4998210;28;20728;-79
2023/11/22 00:48:38;;;;;;;2.67;1.67;;;13.10;91.30;;;;;;4997888;28;20029;-79
2023/11/22 00:51:08;;;;;;;3.28;1.80;;;13.00;91.30;;;;;;4998374;28;20117;-79
2023/11/22 00:53:35;;;;;;;2.85;1.80;;;13.00;91.30;;;;;;5015986;28;20466;-78
2023/11/22 00:56:02;;;;;;;2.95;1.80;;;13.00;91.30;;;;;;5015066;28;20718;-79
2023/11/22 00:58:27;;;;;;;3.05;1.70;;;13.10;91.30;;;;;;4997919;28;20034;-79
2023/11/22 01:00:53;;;;;;;3.00;1.80;;;13.00;91.30;;;;;;4998434;28;20059;-79
2023/11/22 01:03:19;;;;;;;2.70;1.60;;;13.10;91.30;;;;;;4998371;28;20033;-79
2023/11/22 01:05:46;;;;;;;3.20;1.83;;;13.10;91.30;;;;;;5015351;28;20034;-78
2023/11/22 01:08:13;;;;;;;2.75;1.70;;;13.10;91.30;;;;;;4997764;28;20109;-78
2023/11/22 01:10:39;;;;;;;3.38;2.00;;;13.00;91.30;;;;;;4998082;28;20032;-79
2023/11/22 01:13:04;;;;;;;3.03;1.58;;;13.10;91.30;;;;;;4997257;28;20108;-79
2023/11/22 01:15:30;;;;;;;3.28;1.80;;;13.00;91.30;;;;;;4997589;28;20132;-77
2023/11/22 01:17:55;;;;;;;3.25;1.80;;;13.00;91.30;;;;;;5015221;28;20068;-79
2023/11/22 01:20:23;;;;;;;3.22;1.85;;;13.00;91.30;;;;;;5015186;28;20021;-79
2023/11/22 01:22:48;;;;;;;3.10;1.70;;;13.10;91.30;;;;;;4997684;28;20036;-79
2023/11/22 01:25:14;;;;;;;2.60;1.60;;;13.00;91.30;;;;;;5015326;28;20399;-78
2023/11/22 01:27:39;;;;;;;2.97;1.77;;;13.10;91.30;;;;;;4997078;28;20026;-79
2023/11/22 01:30:07;;;;;;;2.75;1.70;;;13.00;91.30;;;;;;4997038;28;20029;-79
2023/11/22 01:32:34;;;;;;;3.10;1.73;;;13.00;91.30;;;;;;5014819;28;20522;-79
2023/11/22 01:35:00;;;;;;;2.88;1.73;;;13.00;91.30;;;;;;4997664;28;20032;-79
2023/11/22 01:37:27;;;;;;;3.17;1.80;;;13.00;91.30;;;;;;5015138;28;20116;-79
2023/11/22 01:39:54;;;;;;;2.55;1.67;;;13.00;91.40;;;;;;4997380;28;20105;-78
2023/11/22 01:42:20;;;;;;;3.42;1.90;;;13.10;91.50;;;;;;4997455;28;20041;-79
2023/11/22 01:44:47;;;;;;;2.83;1.65;;;13.00;91.20;;;;;;5014931;28;20056;-79
2023/11/22 01:47:14;;;;;;;3.05;1.90;;;13.00;91.20;;;;;;4996844;28;20100;-79
2023/11/22 01:49:40;;;;;;;2.50;1.58;;;13.00;91.20;;;;;;4997599;28;20029;-79
2023/11/22 01:52:06;;;;;;;2.95;1.70;;;13.00;91.20;;;;;;4997380;28;20022;-79
2023/11/22 01:54:33;;;;;;;2.65;1.60;;;13.00;91.20;;;;;;5014195;28;20057;-79
2023/11/22 01:56:59;;;;;;;3.38;1.80;;;13.00;91.20;;;;;;5013489;28;20018;-79
2023/11/22 01:59:27;;;;;;;3.38;1.83;;;13.00;91.20;;;;;;5013267;28;20026;-79
2023/11/22 02:01:54;;;;;;;2.97;1.73;;;13.10;91.30;;;;;;4997192;28;20060;-78
2023/11/22 02:04:20;;;;;;;2.88;1.52;;;13.00;91.20;;;;;;5014183;28;20361;-79
2023/11/22 02:06:46;;;;;;;3.25;1.83;;;13.00;91.20;;;;;;4996776;28;20018;-79
2023/11/22 02:09:15;;;;;;;2.13;1.50;;;13.10;91.30;;;;;;5012883;28;20022;-79
2023/11/22 02:11:42;;;;;;;2.72;1.60;;;13.00;91.20;;;;;;5014319;28;20034;-79
2023/11/22 02:14:08;;;;;;;3.25;2.00;;;13.00;91.20;;;;;;4996328;28;20026;-79
2023/11/22 02:16:34;;;;;;;3.22;1.52;;;13.00;91.20;;;;;;5014392;28;20022;-79
2023/11/22 02:19:00;;;;;;;2.72;1.73;;;13.00;91.20;;;;;;4996792;28;20026;-79
2023/11/22 02:21:26;;;;;;;3.10;1.90;;;13.00;91.20;;;;;;4996626;28;20056;-79
2023/11/22 02:23:51;;;;;;;2.97;1.70;;;13.00;91.20;;;;;;5013200;28;20455;-79
2023/11/22 02:26:20;;;;;;;2.83;1.73;;;13.00;91.20;;;;;;4996361;28;20025;-80
2023/11/22 02:28:45;;;;;;;3.08;1.80;;;13.00;91.20;;;;;;4996362;28;20117;-80
2023/11/22 02:31:11;;;;;;;2.90;1.50;;;13.00;91.20;;;;;;4996586;28;20470;-79
2023/11/22 02:33:36;;;;;;;2.78;1.73;;;13.00;91.20;;;;;;4996453;28;20026;-79
2023/11/22 02:36:02;;;;;;;2.47;1.52;;;13.00;91.20;;;;;;4996219;28;20026;-79
2023/11/22 02:38:28;;;;;;;2.85;1.65;;;13.10;91.20;;;;;;4995821;28;20128;-79
2023/11/22 02:40:54;;;;;;;2.35;1.40;;;13.00;91.20;;;;;;4996188;28;20048;-79
2023/11/22 02:43:20;;;;;;;3.38;1.95;;;13.00;91.20;;;;;;4996025;28;20559;-79
2023/11/22 02:45:46;;;;;;;2.53;1.70;;;13.00;91.20;;;;;;4995963;28;20117;-79
2023/11/22 02:48:13;;;;;;;2.45;1.55;;;13.00;91.20;;;;;;4995960;28;20113;-79
2023/11/22 02:50:39;;;;;;;2.92;1.70;;;13.00;91.20;;;;;;4995956;28;20026;-80
2023/11/22 02:53:05;;;;;;;3.15;1.85;;;13.00;91.20;;;;;;4995983;28;20058;-79
2023/11/22 02:55:31;;;;;;;3.67;1.67;;;13.00;91.20;;;;;;4995976;28;20030;-78
2023/11/22 02:57:56;;;;;;;2.92;1.65;;;13.00;91.20;;;;;;4995850;28;20112;-79
2023/11/22 03:00:22;;;;;;;2.72;1.50;;;13.10;91.20;;;;;;4995848;28;20080;-79
2023/11/22 03:02:53;;;;;;;2.90;1.58;;;13.00;91.20;;;;;;4995824;28;20030;-79
2023/11/22 03:05:22;;;;;;;3.10;1.83;;;13.00;91.20;;;;;;4995077;28;20042;-79
2023/11/22 03:07:47;;;;;;;2.60;1.55;;;13.00;91.20;;;;;;4995666;28;20049;-79
2023/11/22 03:10:13;;;;;;;3.10;1.90;;;13.00;91.20;;;;;;4995842;28;20495;-79
2023/11/22 03:12:54;;;;;;;2.63;1.60;;;13.00;91.20;;;;;;4995316;28;20076;-79
2023/11/22 03:15:19;;;;;;;2.70;1.50;;;13.00;91.10;;;;;;4995439;28;20057;-79
2023/11/22 03:17:45;;;;;;;2.65;1.70;;;13.00;91.20;;;;;;5013267;28;20063;-79
2023/11/22 03:20:11;;;;;;;3.28;1.73;;;13.00;91.20;;;;;;4995494;28;20025;-79
2023/11/22 03:22:37;;;;;;;3.47;1.70;;;13.00;91.10;;;;;;4997616;28;20054;-79
2023/11/22 03:25:03;;;;;;;2.63;1.42;;;13.00;91.10;;;;;;5014699;28;20084;-80
2023/11/22 03:27:30;;;;;;;2.72;1.70;;;13.00;91.10;;;;;;5014548;28;20108;-79
2023/11/22 03:29:55;;;;;;;3.25;1.70;;;13.00;91.10;;;;;;5015059;28;20026;-79
2023/11/22 03:32:21;;;;;;;3.03;1.60;;;13.00;91.10;;;;;;5014938;28;20025;-78
2023/11/22 03:34:47;;;;;;;3.45;1.65;;;13.00;91.10;;;;;;5032574;28;20372;-78
2023/11/22 03:37:12;;;;;;;2.70;1.60;;;13.00;91.10;;;;;;5032756;28;20079;-79
2023/11/22 03:39:38;;;;;;;2.85;1.50;;;13.00;91.10;;;;;;5014583;28;20026;-79
2023/11/22 03:42:04;;;;;;;2.10;1.45;;;13.00;91.10;;;;;;5014645;28;20395;-79
2023/11/22 03:44:30;;;;;;;2.58;1.60;;;13.00;91.10;;;;;;5032627;28;20029;-80
2023/11/22 03:46:55;;;;;;;2.63;1.45;;;13.00;91.10;;;;;;5014490;28;20522;-78
2023/11/22 03:49:21;;;;;;;2.70;1.55;;;13.00;91.10;;;;;;5014748;28;20026;-79
2023/11/22 03:51:47;;;;;;;2.63;1.60;;;13.00;91.10;;;;;;5014784;28;20025;-78
2023/11/22 03:54:12;;;;;;;2.33;1.50;;;13.00;91.10;;;;;;5014802;28;20361;-79
2023/11/22 03:56:38;;;;;;;2.90;1.67;;;13.00;91.10;;;;;;5014678;28;20029;-79
2023/11/22 03:59:03;;;;;;;2.28;1.40;;;13.00;91.10;;;;;;5014555;28;20036;-78
2023/11/22 04:01:29;;;;;;;2.40;1.60;;;13.00;91.10;;;;;;5032113;28;20032;-79
2023/11/22 04:03:54;;;;;;;2.47;1.55;;;13.00;91.10;;;;;;5032406;28;20053;-78
2023/11/22 04:06:20;;;;;;;3.33;1.60;;;13.00;91.10;;;;;;5014707;28;20038;-79
2023/11/22 04:08:46;;;;;;;3.20;1.83;;;13.00;91.10;;;;;;5014663;28;20113;-79
2023/11/22 04:11:13;;;;;;;2.92;1.65;;;13.00;91.10;;;;;;5014647;28;20029;-78
2023/11/22 04:13:39;;;;;;;2.75;1.60;;;13.00;91.10;;;;;;5014398;28;20037;-79
2023/11/22 04:16:08;;;;;;;2.72;1.50;;;13.00;91.10;;;;;;5014748;28;20033;-79
2023/11/22 04:18:43;;;;;;;2.88;1.60;;;13.00;91.20;;;;;;5035992;28;20498;-79
2023/11/22 04:21:08;;;;;;;3.13;1.70;;;13.00;91.10;;;;;;5018294;28;20037;-80
2023/11/22 04:23:34;;;;;;;2.72;1.63;;;13.00;91.10;;;;;;5018722;28;20078;-79
2023/11/22 04:26:00;;;;;;;3.20;1.65;;;13.00;91.10;;;;;;5018438;28;20506;-79
2023/11/22 04:28:27;;;;;;;2.63;1.50;;;13.00;91.10;;;;;;5014440;28;20030;-80
2023/11/22 04:30:53;;;;;;;3.60;1.63;;;13.00;91.10;;;;;;5014566;28;20079;-79
2023/11/22 04:33:19;;;;;;;2.90;1.63;;;13.00;91.10;;;;;;5014515;28;20029;-78
2023/11/22 04:35:44;;;;;;;2.60;1.70;;;13.00;91.10;;;;;;5006325;28;20080;-79
2023/11/22 04:38:10;;;;;;;2.97;1.70;;;13.00;91.10;;;;;;5013864;28;20041;-79
2023/11/22 04:40:36;;;;;;;3.33;1.90;;;13.00;91.10;;;;;;5032611;28;20033;-78
2023/11/22 04:43:02;;;;;;;2.90;1.60;;;13.00;91.10;;;;;;5032547;28;20041;-79
2023/11/22 04:45:28;;;;;;;2.22;1.50;;;13.00;91.00;;;;;;5014914;28;20050;-80
2023/11/22 04:47:56;;;;;;;2.80;1.63;;;13.00;91.30;;;;;;5014494;28;20032;-79
2023/11/22 04:50:24;;;;;;;2.78;1.58;;;13.00;91.10;;;;;;5014582;28;20552;-79
2023/11/22 04:52:49;;;;;;;3.20;1.77;;;13.00;91.00;;;;;;5013583;28;20037;-79
2023/11/22 04:55:15;;;;;;;3.13;1.70;;;13.00;91.00;;;;;;5031714;28;20021;-78
2023/11/22 04:57:40;;;;;;;2.92;1.65;;;13.00;91.00;;;;;;5012232;28;20127;-78
2023/11/22 05:00:07;;;;;;;2.75;1.50;;;13.00;91.00;;;;;;5014681;28;20454;-80
2023/11/22 05:02:33;;;;;;;2.72;1.67;;;13.00;91.00;;;;;;5013937;28;20026;-78
2023/11/22 05:04:58;;;;;;;3.25;1.73;;;13.00;91.00;;;;;;5014466;28;20079;-79
2023/11/22 05:07:23;;;;;;;3.65;1.77;;;13.00;91.00;;;;;;5014016;28;20021;-79
2023/11/22 05:09:49;;;;;;;3.47;1.98;;;13.00;91.00;;;;;;5014807;28;20025;-79
2023/11/22 05:12:14;;;;;;;2.55;1.50;;;13.00;91.00;;;;;;5012728;28;20426;-79
2023/11/22 05:14:43;;;;;;;3.47;2.00;;;13.00;90.90;;;;;;5031774;28;20024;-80
2023/11/22 05:17:08;;;;;;;3.05;1.75;;;13.00;90.90;;;;;;5012163;28;20053;-77
2023/11/22 05:19:34;;;;;;;2.25;1.40;;;13.00;91.00;;;;;;5003947;28;20064;-78
2023/11/22 05:22:00;;;;;;;2.65;1.60;;;13.00;91.00;;;;;;5011483;28;20749;-77
2023/11/22 05:24:26;;;;;;;2.80;1.60;;;13.00;91.00;;;;;;5012159;28;20511;-80
2023/11/22 05:26:51;;;;;;;3.08;1.85;;;13.00;91.00;;;;;;5013040;28;20056;-78
2023/11/22 05:29:17;;;;;;;2.75;1.60;;;13.00;90.90;;;;;;5012094;28;20065;-79
2023/11/22 05:31:42;;;;;;;3.40;1.92;;;13.00;90.90;;;;;;5012172;28;20025;-78
2023/11/22 05:34:08;;;;;;;3.13;1.83;;;13.00;90.80;;;;;;5030611;28;20036;-77
2023/11/22 05:36:33;;;;;;;2.67;1.55;;;13.00;90.70;;;;;;5012075;28;20030;-78
2023/11/22 05:38:59;;;;;;;3.25;1.70;;;13.00;90.80;;;;;;5013925;28;20028;-78
2023/11/22 05:41:28;;;;;;;2.95;1.70;;;13.00;90.80;;;;;;5031939;28;20024;-79
2023/11/22 05:43:53;;;;;;;2.65;1.70;;;13.00;90.80;;;;;;5031882;28;20051;-78
2023/11/22 05:46:24;;;;;;;2.90;1.60;;;13.00;90.80;;;;;;5050405;28;20021;-78
2023/11/22 05:48:50;;;;;;;3.47;1.90;;;12.90;90.90;;;;;;5032551;28;20025;-79
2023/11/22 05:51:16;;;;;;;2.95;1.75;;;13.00;90.80;;;;;;5031832;28;20033;-78
2023/11/22 05:53:42;;;;;;;3.10;1.67;;;13.00;90.90;;;;;;5032400;28;20036;-78
2023/11/22 05:56:11;;;;;;;3.08;1.75;;;13.00;90.90;;;;;;5050630;28;20114;-79
2023/11/22 05:58:38;;;;;;;3.47;1.70;;;13.00;90.90;;;;;;5032443;28;20024;-78
2023/11/22 06:01:04;;;;;;;3.05;1.70;;;13.00;90.90;;;;;;5050919;28;20025;-78
2023/11/22 06:03:30;;;;;;;3.10;1.70;;;12.90;90.90;;;;;;5032139;28;20021;-79
2023/11/22 06:05:57;;;;;;;2.88;1.58;;;13.00;90.90;;;;;;5050586;28;20040;-79
2023/11/22 06:08:23;;;;;;;3.15;1.80;;;13.00;90.90;;;;;;5032057;28;20628;-79
2023/11/22 06:10:48;;;;;;;4.20;1.70;;;12.90;90.90;;;;;;5031202;28;20025;-78
2023/11/22 06:13:14;;;;;;;3.10;1.80;;;12.90;90.80;;;;;;5049164;28;20028;-79
2023/11/22 06:15:40;;;;;;;2.67;1.60;;;13.00;90.80;;;;;;5031902;28;20116;-79
2023/11/22 06:18:06;;;;;;;3.13;1.85;;;13.00;90.90;;;;;;5024802;28;20361;-79
2023/11/22 06:20:31;;;;;;;2.97;1.70;;;13.00;90.90;;;;;;5011698;28;20395;-80
2023/11/22 06:22:57;;;;;;;3.55;1.90;;;13.00;90.90;;;;;;5011259;28;20026;-78
2023/11/22 06:25:22;;;;;;;3.83;2.25;;;13.00;90.90;;;;;;5028252;28;20032;-79
2023/11/22 06:27:48;;;;;;;4.53;2.10;;;12.90;90.60;;;;;;5028316;28;20463;-77
2023/11/22 06:30:14;;;;;;;3.30;1.80;;;12.90;90.60;;;;;;5028867;28;20069;-79
2023/11/22 06:32:41;;;;;;;3.45;1.90;;;12.90;90.50;;;;;;5010263;28;20562;-78
2023/11/22 06:35:08;;;;;;;3.10;1.80;;;13.00;90.50;;;;;;5028536;28;20029;-78
2023/11/22 06:37:34;;;;;;;4.13;2.20;;;12.90;90.40;;;;;;5011121;28;20380;-80
2023/11/22 06:40:00;;;;;;;3.25;1.80;;;12.90;90.20;;;;;;5011196;28;20084;-79
2023/11/22 06:42:26;;;;;;;4.25;2.10;;;12.90;90.40;;;;;;5010596;28;20044;-78
2023/11/22 06:44:52;;;;;;;4.00;2.15;;;13.00;90.30;;;;;;5010943;28;20144;-80
2023/11/22 06:47:18;;;;;;;3.58;1.80;;;12.90;90.40;;;;;;5010440;28;20486;-79
2023/11/22 06:49:44;;;;;;;4.35;2.10;;;12.90;90.40;;;;;;5010119;28;20033;-78
2023/11/22 06:52:10;;;;;;;4.78;2.40;;;13.00;90.10;;;;;;5010718;28;20072;-79
2023/11/22 06:54:36;;;;;;;4.05;2.20;;;13.00;90.10;;;;;;5010866;28;20025;-80
2023/11/22 06:57:02;;;;;;;3.38;1.90;;;12.90;90.20;;;;;;5010420;28;20025;-80
2023/11/22 06:59:28;;;;;;;4.55;2.22;;;12.90;90.20;;;;;;5010373;28;20549;-79
2023/11/22 07:01:55;;;;;;;4.57;2.53;;;13.00;90.20;;;;;;5010563;28;20029;-78
2023/11/22 07:04:22;;;;;;;4.32;2.10;;;12.90;90.20;;;;;;5028270;28;20018;-81
2023/11/22 07:06:48;;;;;;;2.90;1.83;;;12.90;90.30;;;;;;5010332;28;20029;-79
2023/11/22 07:09:14;;;;;;;4.22;2.13;;;12.90;90.30;;;;;;5028041;28;20129;-79
2023/11/22 07:11:40;;;;;;;3.72;2.05;;;13.00;90.30;;;;;;5010403;28;20132;-79
2023/11/22 07:14:05;;;;;;;4.22;2.40;;;12.90;90.30;;;;;;5010304;28;20021;-78
2023/11/22 07:16:34;;;;;;;6.93;2.60;;;13.00;90.30;;;;;;5027996;28;20475;-79
2023/11/22 07:19:06;;;;;;;4.65;2.50;;;12.90;90.30;;;;;;5009899;28;20037;-77
2023/11/22 07:21:32;;;;;;;4.55;2.38;;;12.90;90.40;;;;;;5010467;28;20030;-79
2023/11/22 07:24:01;;;;;;;3.67;2.10;;;13.00;90.30;;;;;;5010645;28;20171;-79
2023/11/22 07:26:27;;;;;;;4.65;2.20;;;13.00;90.30;;;;;;5010286;28;20780;-79
2023/11/22 07:28:53;;;;;;;3.55;1.95;;;13.00;90.30;;;;;;5010136;28;20026;-78
2023/11/22 07:31:19;;;;;;;4.32;2.10;;;13.00;90.30;;;;;;5028187;28;20546;-80
2023/11/22 07:33:46;;;;;;;5.28;2.35;;;13.00;90.30;;;;;;5010469;28;20051;-77
2023/11/22 07:36:14;;;;;;;3.97;2.10;;;13.00;90.30;;;;;;5010305;28;20128;-79
2023/11/22 07:38:41;;;;;;;4.13;2.10;;;13.00;90.40;;;;;;5010339;28;20125;-81
2023/11/22 07:41:07;;;;;;;3.58;1.98;;;13.00;90.40;;;;;;5010694;28;20060;-79
2023/11/22 07:43:32;;;;;;;3.83;2.10;;;13.10;90.40;;;;;;5010293;28;20037;-79
2023/11/22 07:45:59;;;;;;;4.10;2.30;;;13.00;90.40;;;;;;5027920;28;20025;-78
2023/11/22 07:48:25;;;;;;;3.28;2.10;;;13.00;90.40;;;;;;5010026;28;20040;-79
2023/11/22 07:50:51;;;;;;;4.63;2.20;;;13.00;90.40;;;;;;5010289;28;20344;-77
2023/11/22 07:53:17;;;;;;;3.88;2.20;;;13.00;90.40;;;;;;5027342;28;20480;-79
2023/11/22 07:55:43;;;;;;;3.22;1.90;;;13.00;90.40;;;;;;5013464;28;20171;-78
2023/11/22 07:58:08;;;;;;;3.63;2.00;;;13.10;90.50;;;;;;4996395;28;20483;-78
2023/11/22 08:00:34;;;;;;;4.18;2.10;;;13.00;90.40;;;;;;5013172;28;20072;-79
2023/11/22 08:03:03;;;;;;;3.70;2.10;;;13.10;90.50;;;;;;5013667;28;20065;-79
2023/11/22 08:05:34;;;;;;;3.58;2.15;;;13.10;90.50;;;;;;5014588;28;20026;-79
2023/11/22 08:08:01;;;;;;;4.20;2.20;;;13.10;90.40;;;;;;5013363;28;20026;-79
2023/11/22 08:10:27;;;;;;;3.78;2.10;;;13.10;90.40;;;;;;4997022;28;20054;-79
2023/11/22 08:12:53;;;;;;;4.78;2.80;;;13.10;90.40;;;;;;5014049;28;20716;-80
2023/11/22 08:15:19;;;;;;;4.03;2.10;;;13.20;90.40;;;;;;5013200;28;20116;-81
2023/11/22 08:17:46;;;;;;;4.40;2.40;;;13.20;90.40;;;;;;5012981;28;20033;-79
2023/11/22 08:20:12;;;;;;;4.32;2.42;;;13.20;90.40;;;;;;5013207;28;20026;-78
2023/11/22 08:22:39;;;;;;;4.35;2.20;;;13.30;90.50;;;;;;5013635;28;20037;-78
2023/11/22 08:25:08;;;;;;;4.45;2.33;;;13.30;90.40;;;;;;5013088;28;20065;-77
2023/11/22 08:27:34;;;;;;;3.90;2.30;;;13.30;90.40;;;;;;4996603;28;20128;-78
2023/11/22 08:30:04;;;;;;;3.55;2.10;;;13.30;90.40;;;;;;5013449;28;20125;-79
2023/11/22 08:32:33;;;;;;;3.50;2.13;;;13.30;90.40;;;;;;5012753;28;20030;-79
2023/11/22 08:34:58;;;;;;;3.92;2.30;;;13.30;90.40;;;;;;5014510;28;20383;-77
2023/11/22 08:37:25;;;;;;;4.05;2.13;;;13.30;90.40;;;;;;5012869;28;20440;-80
2023/11/22 08:39:50;;;;;;;3.53;1.90;;;13.30;90.50;;;;;;5014123;28;20033;-77
2023/11/22 08:42:16;;;;;;;3.42;2.08;;;13.30;90.50;;;;;;5014159;28;20030;-80
2023/11/22 08:44:41;;;;;;;3.88;2.38;;;13.40;90.50;;;;;;5014046;28;20434;-78
2023/11/22 08:47:08;;;;;;;4.05;2.40;;;13.30;90.60;;;;;;5012665;28;20578;-80
2023/11/22 08:49:34;;;;;;;4.85;2.35;;;13.30;90.50;;;;;;5013220;28;20037;-77
2023/11/22 08:51:59;;;;;;;3.75;2.25;;;13.30;90.50;;;;;;5013068;28;20026;-79
2023/11/22 08:54:29;;;;;;;3.80;2.10;;;13.30;90.50;;;;;;5014007;28;20034;-79
2023/11/22 08:56:58;;;;;;;4.05;2.22;;;13.30;90.50;;;;;;4996205;28;20418;-79
2023/11/22 08:59:23;;;;;;;4.07;2.25;;;13.30;90.50;;;;;;5012867;28;20052;-79
2023/11/22 09:01:49;;;;;;;3.70;2.00;;;13.30;90.50;;;;;;5012943;28;20029;-77
2023/11/22 09:04:15;;;;;;;4.15;2.20;;;13.30;90.40;;;;;;5008748;28;20042;-79
2023/11/22 09:06:41;;;;;;;4.53;2.20;;;13.30;90.40;;;;;;5009440;28;20084;-77
2023/11/22 09:09:08;;;;;;;3.90;2.30;;;13.30;90.40;;;;;;4992902;28;20026;-79
2023/11/22 09:11:34;;;;;;;3.15;1.98;;;13.30;90.40;;;;;;5010600;28;20042;-78
2023/11/22 09:14:04;;;;;;;4.38;2.40;;;13.30;90.40;;;;;;5009492;28;20080;-78
2023/11/22 09:16:35;;;;;;;4.85;2.50;;;13.30;90.40;;;;;;5009426;28;20112;-80
2023/11/22 09:19:01;;;;;;;3.45;2.10;;;13.30;90.40;;;;;;4992795;28;20037;-79
2023/11/22 09:21:26;;;;;;;3.75;2.15;;;13.30;90.40;;;;;;5009476;28;20069;-78
2023/11/22 09:23:52;;;;;;;3.97;2.20;;;13.30;90.40;;;;;;5010948;28;20022;-79
2023/11/22 09:26:18;;;;;;;3.88;2.20;;;13.30;90.40;;;;;;5009494;28;20030;-78
2023/11/22 09:28:44;;;;;;;4.43;2.53;;;13.30;90.40;;;;;;5009312;28;20750;-79
2023/11/22 09:31:13;;;;;;;4.50;2.25;;;13.30;90.40;;;;;;5009018;28;20041;-78
2023/11/22 09:33:38;;;;;;;3.28;1.88;;;13.30;90.40;;;;;;5008988;28;20054;-79
2023/11/22 09:36:04;;;;;;;4.35;2.33;;;13.30;90.40;;;;;;5010532;28;20069;-78
2023/11/22 09:38:29;;;;;;;4.15;2.50;;;13.30;90.40;;;;;;5008856;28;20056;-79
2023/11/22 09:40:56;;;;;;;4.15;2.40;;;13.30;90.40;;;;;;5009087;28;20076;-78
2023/11/22 09:43:24;;;;;;;4.10;2.42;;;13.30;90.60;;;;;;5009052;28;20073;-79
2023/11/22 09:45:50;;;;;;;5.00;2.60;;;13.30;90.40;;;;;;5008854;28;20506;-79
2023/11/22 09:48:20;;;;;;;3.97;2.28;;;13.30;90.40;;;;;;5009538;28;20036;-79
2023/11/22 09:50:58;;;;;;;3.70;2.00;;;13.30;90.40;;;;;;4992815;28;20381;-80
2023/11/22 09:53:53;;;;;;;4.28;2.28;;;13.20;90.40;;;;;;4992436;28;20053;-79
2023/11/22 09:56:19;;;;;;;3.75;2.20;;;13.20;90.40;;;;;;4992488;28;20026;-77
2023/11/22 09:58:45;;;;;;;3.92;2.10;;;13.20;90.40;;;;;;5008257;28;20189;-79
2023/11/22 10:01:16;;;;;;;4.35;2.40;;;13.20;90.40;;;;;;5009730;28;20128;-78
2023/11/22 10:03:41;;;;;;;4.33;2.20;;;13.20;90.40;;;;;;4992467;28;20030;-78
2023/11/22 10:06:07;;;;;;;4.50;2.30;;;13.20;90.40;;;;;;5008791;28;20292;-79
2023/11/22 10:08:35;;;;;;;4.97;2.00;;;13.20;90.40;;;;;;5008162;28;20025;-77
2023/11/22 10:11:01;;;;;;;4.63;2.38;;;13.20;90.40;;;;;;5010151;28;20041;-79
2023/11/22 10:13:27;;;;;;;3.78;2.08;;;13.20;90.40;;;;;;5009770;28;20069;-79
2023/11/22 10:15:53;;;;;;;4.00;2.33;;;13.20;90.40;;;;;;5008080;28;20045;-79
2023/11/22 10:18:19;;;;;;;4.35;2.17;;;13.20;90.40;;;;;;5009225;28;20037;-77
2023/11/22 10:20:47;;;;;;;4.10;2.35;;;13.20;90.40;;;;;;4992287;28;20030;-80
2023/11/22 10:23:14;;;;;;;3.88;2.22;;;13.20;90.40;;;;;;4992382;28;20029;-78
2023/11/22 10:25:49;;;;;;;4.22;2.40;;;13.20;90.40;;;;;;5009711;28;20041;-78
2023/11/22 10:28:16;;;;;;;3.85;2.30;;;13.20;90.40;;;;;;4991793;28;20033;-79
2023/11/22 10:30:42;;;;;;;4.32;2.45;;;13.20;90.40;;;;;;5009807;28;20502;-77
2023/11/22 10:33:10;;;;;;;4.35;2.22;;;13.20;90.40;;;;;;5008334;28;20022;-79
2023/11/22 10:35:37;;;;;;;4.28;2.40;;;13.20;90.40;;;;;;4991773;28;20029;-79
2023/11/22 10:38:06;;;;;;;4.63;2.10;;;13.20;90.40;;;;;;5007488;28;20029;-77
2023/11/22 10:40:31;;;;;;;3.53;2.20;;;13.20;90.40;;;;;;5009662;28;20057;-79
2023/11/22 10:42:57;;;;;;;3.92;2.30;;;13.20;90.40;;;;;;5008970;28;20072;-80
2023/11/22 10:45:26;;;;;;;4.28;2.33;;;13.20;90.40;;;;;;5007861;28;20030;-81
2023/11/22 10:47:54;;;;;;;4.25;2.30;;;13.20;90.40;;;;;;4991230;28;20029;-79
2023/11/22 10:50:21;;;;;;;4.47;2.40;;;13.20;90.40;;;;;;4991347;28;20080;-78
2023/11/22 10:52:53;;;;;;;4.10;2.38;;;13.20;90.40;;;;;;5008008;28;20022;-80
2023/11/22 10:55:20;;;;;;;3.92;2.25;;;13.20;90.30;;;;;;5008825;28;20033;-80
2023/11/22 10:57:50;;;;;;;3.90;2.25;;;13.20;90.40;;;;;;4991256;28;20030;-78
2023/11/22 11:00:19;;;;;;;4.43;2.50;;;13.20;90.40;;;;;;5008002;28;20052;-79
2023/11/22 11:02:48;;;;;;;4.22;2.40;;;13.20;90.40;;;;;;4991471;28;20052;-80
2023/11/22 11:05:24;;;;;;;4.50;2.50;;;13.20;90.40;;;;;;4990933;28;20468;-78
2023/11/22 11:07:57;;;;;;;4.45;2.30;;;13.20;90.40;;;;;;4991186;28;20118;-78
2023/11/22 11:10:23;;;;;;;4.68;2.50;;;13.20;90.40;;;;;;4991063;28;20022;-80
2023/11/22 11:12:49;;;;;;;3.92;2.10;;;13.20;90.40;;;;;;5007747;28;20041;-79
2023/11/22 11:15:17;;;;;;;4.28;2.35;;;13.20;90.40;;;;;;5007384;28;20521;-79
2023/11/22 11:17:46;;;;;;;3.78;2.13;;;13.20;90.40;;;;;;4991147;28;20117;-79
2023/11/22 11:20:13;;;;;;;4.30;2.38;;;13.20;90.40;;;;;;4991095;28;20081;-80
2023/11/22 11:22:39;;;;;;;3.85;2.28;;;13.20;90.40;;;;;;5007387;28;20100;-79
2023/11/22 11:25:05;;;;;;;3.83;2.22;;;13.30;90.40;;;;;;5008455;28;20040;-79
2023/11/22 11:27:38;;;;;;;4.45;2.40;;;13.20;90.30;;;;;;5006300;28;20045;-80
2023/11/22 11:30:32;;;;;;;3.60;2.22;;;13.30;90.30;;;;;;4990619;28;20029;-78
2023/11/22 11:32:57;;;;;;;4.88;2.53;;;13.30;90.40;;;;;;5008676;28;20025;-79
2023/11/22 11:35:38;;;;;;;3.58;2.15;;;13.30;90.30;;;;;;5008465;28;20084;-77
2023/11/22 11:38:04;;;;;;;4.55;2.30;;;13.30;90.30;;;;;;4990629;28;20129;-78
2023/11/22 11:40:34;;;;;;;4.13;2.30;;;13.30;90.30;;;;;;5007307;28;20117;-79
2023/11/22 11:43:00;;;;;;;4.15;2.35;;;13.30;90.30;;;;;;5006917;28;20041;-79
2023/11/22 11:45:27;;;;;;;4.63;2.60;;;13.30;90.30;;;;;;5007835;28;20029;-78
2023/11/22 11:47:53;;;;;;;3.92;2.10;;;13.30;90.20;;;;;;4990425;28;20480;-80
2023/11/22 11:50:21;;;;;;;3.42;2.00;;;13.30;90.20;;;;;;5006752;28;20034;-77
2023/11/22 11:52:47;;;;;;;4.22;2.40;;;13.30;90.20;;;;;;4990599;28;20022;-79
2023/11/22 11:55:13;;;;;;;4.43;2.40;;;13.30;90.20;;;;;;5006282;28;20033;-80
2023/11/22 11:57:41;;;;;;;4.35;2.35;;;13.40;90.20;;;;;;5007522;28;20104;-78
2023/11/22 12:00:09;;;;;;;3.45;2.20;;;13.30;90.10;;;;;;5006733;28;20038;-79
2023/11/22 12:02:35;;;;;;;3.92;2.35;;;13.40;90.20;;;;;;4990406;28;20034;-79
2023/11/22 12:05:06;;;;;;;3.50;2.10;;;13.40;90.20;;;;;;5007742;28;20037;-79
2023/11/22 12:07:31;;;;;;;3.75;2.15;;;13.40;90.20;;;;;;5007455;28;20076;-78
2023/11/22 12:09:57;;;;;;;3.40;2.15;;;13.40;90.20;;;;;;5006557;28;20548;-80
2023/11/22 12:12:22;;;;;;;4.43;2.30;;;13.40;90.20;;;;;;5007829;28;20025;-79
2023/11/22 12:14:49;;;;;;;3.83;2.33;;;13.40;90.50;;;;;;5007536;28;20030;-79
2023/11/22 12:17:16;;;;;;;4.10;2.30;;;13.40;90.10;;;;;;5006367;28;20033;-79
2023/11/22 12:19:42;;;;;;;3.53;2.00;;;13.40;90.10;;;;;;5007818;28;20033;-79
2023/11/22 12:22:07;;;;;;;4.25;2.50;;;13.40;90.10;;;;;;5006661;28;20034;-79
2023/11/22 12:24:34;;;;;;;3.88;2.20;;;13.40;90.10;;;;;;5007587;28;20022;-80
2023/11/22 12:27:00;;;;;;;3.85;2.08;;;13.40;90.10;;;;;;4989602;28;20484;-79
2023/11/22 12:29:25;;;;;;;3.88;2.10;;;13.40;90.20;;;;;;5006639;28;20018;-79
2023/11/22 12:31:56;;;;;;;4.55;2.50;;;13.40;90.20;;;;;;5006221;28;20033;-78
2023/11/22 12:34:23;;;;;;;3.42;2.00;;;13.40;90.20;;;;;;5006318;28;20138;-79
2023/11/22 12:36:49;;;;;;;3.70;1.98;;;13.40;90.20;;;;;;5006596;28;20099;-79
2023/11/22 12:39:18;;;;;;;3.97;2.15;;;13.40;90.20;;;;;;4992919;28;20041;-77
2023/11/22 12:41:50;;;;;;;3.83;2.05;;;13.40;90.30;;;;;;5011085;28;20368;-79
2023/11/22 12:44:22;;;;;;;3.40;1.90;;;13.50;90.50;;;;;;4993290;28;20179;-78